Time;durP1;ratioP1;P1;durP2;ratioP2;P2;SDS_P1;SDS_P2;PMS_P1;PMS_P2;Temp;Humidity;BMP_temperature;BMP_pressure;BME280_temperature;BME280_humidity;BME280_pressure;Samples;Min_cycle;Max_cycle;Signal;HPM_P1;HPM_P2
2022/05/29 00:02:00;;;;;;;12.00;7.50;;;;;;;8.91;94.13;97115.58;109950;1250;59766;-69
2022/05/29 00:04:30;;;;;;;14.20;9.50;;;;;;;8.87;94.58;97112.55;109810;1250;59762;-67
2022/05/29 00:07:01;;;;;;;13.00;9.00;;;;;;;8.84;95.52;97108.96;109881;1248;70688;-66
2022/05/29 00:09:40;;;;;;;14.00;9.80;;;;;;;8.81;96.29;97107.59;109845;1250;68749;-66
2022/05/29 00:12:12;;;;;;;11.20;7.90;;;;;;;8.80;96.96;97107.33;110004;1250;69336;-66
2022/05/29 00:14:42;;;;;;;10.30;7.40;;;;;;;8.79;96.58;97108.82;109778;1250;59704;-65
2022/05/29 00:17:12;;;;;;;11.30;8.20;;;;;;;8.77;96.36;97104.76;109865;1250;59721;-65
2022/05/29 00:19:42;;;;;;;;;;;;;;;8.76;96.15;97101.05;109876;1250;71785;-65
2022/05/29 00:22:17;;;;;;;12.40;9.10;;;;;;;8.71;96.75;97098.05;109998;1249;68555;-66
2022/05/29 00:24:50;;;;;;;14.70;10.30;;;;;;;8.68;96.58;97103.80;110050;1249;68519;-68
2022/05/29 00:27:19;;;;;;;15.80;10.20;;;;;;;8.67;96.76;97102.11;110170;1250;59740;-65
2022/05/29 00:29:50;;;;;;;52.20;12.30;;;;;;;8.66;95.78;97095.12;110010;1250;59754;-71
2022/05/29 00:32:20;;;;;;;11.40;6.10;;;;;;;8.65;95.19;97098.61;109842;1250;69917;-66
2022/05/29 00:34:51;;;;;;;36.30;13.60;;;;;;;8.65;94.90;97097.06;109507;1251;68556;-66
2022/05/29 00:37:21;;;;;;;17.80;10.30;;;;;;;8.66;96.71;97094.44;109855;1250;68497;-67
2022/05/29 00:39:53;;;;;;;15.90;9.00;;;;;;;8.65;97.39;97094.82;109944;1250;59685;-66
2022/05/29 00:42:27;;;;;;;10.20;7.00;;;;;;;8.64;97.54;97091.08;109781;1250;59696;-66
2022/05/29 00:44:57;;;;;;;19.80;9.00;;;;;;;8.60;94.41;97088.92;109912;1250;71587;-65
2022/05/29 00:47:27;;;;;;;20.00;9.70;;;;;;;8.57;93.29;97083.42;109732;1250;68492;-65
2022/05/29 00:49:58;;;;;;;16.00;9.60;;;;;;;8.52;93.12;97078.58;109614;1251;68639;-66
2022/05/29 00:52:29;;;;;;;15.60;7.50;;;;;;;8.47;92.47;97080.63;109857;1250;59690;-65
2022/05/29 00:55:03;;;;;;;19.20;9.60;;;;;;;8.44;92.82;97082.75;109829;1250;59647;-66
2022/05/29 00:57:40;;;;;;;22.30;11.60;;;;;;;8.42;93.86;97083.40;109910;1250;69692;-68
2022/05/29 01:00:18;;;;;;;20.10;10.60;;;;;;;8.39;94.92;97078.40;109925;1250;67727;-69
2022/05/29 01:02:47;;;;;;;15.90;8.70;;;;;;;8.37;95.61;97083.92;109773;1251;68667;-67
2022/05/29 01:05:19;;;;;;;13.20;8.90;;;;;;;8.35;94.81;97080.90;109807;1248;59742;-65
2022/05/29 01:07:53;;;;;;;15.80;9.60;;;;;;;8.33;95.33;97075.66;109816;1250;59662;-68
2022/05/29 01:10:42;;;;;;;19.40;9.40;;;;;;;8.31;96.14;97074.58;109915;1250;70716;-66
2022/05/29 01:13:46;;;;;;;12.70;9.70;;;;;;;8.26;92.39;97073.70;109759;1250;68577;-67
2022/05/29 01:16:27;;;;;;;12.80;9.60;;;;;;;8.21;91.05;97072.14;110073;1250;68544;-66
2022/05/29 01:19:09;;;;;;;23.70;11.60;;;;;;;8.15;91.08;97066.64;110087;1250;59655;-66
2022/05/29 01:21:50;;;;;;;29.70;11.10;;;;;;;8.09;90.97;97066.18;110015;1248;59745;-66
2022/05/29 01:24:57;;;;;;;20.10;10.40;;;;;;;8.04;91.07;97068.98;109803;1250;70777;-65
2022/05/29 01:27:56;;;;;;;12.10;8.20;;;;;;;7.98;91.07;97070.23;109976;1250;68594;-68
2022/05/29 01:30:30;;;;;;;10.20;7.00;;;;;;;7.95;91.31;97069.75;109664;1250;69397;-68
2022/05/29 01:33:00;;;;;;;12.00;8.20;;;;;;;7.94;91.60;97066.90;110141;1248;59770;-67
2022/05/29 01:35:56;;;;;;;;;;;;;;;7.92;92.40;97069.80;110128;1250;59674;-68
2022/05/29 01:38:35;;;;;;;13.90;9.70;;;;;;;7.93;94.20;97077.02;109507;1255;70716;-64
2022/05/29 01:41:09;;;;;;;16.90;12.60;;;;;;;7.97;96.48;97079.67;109419;1255;66701;-66
2022/05/29 01:43:55;;;;;;;12.40;8.60;;;;;;;8.00;97.22;97077.39;109466;1255;68487;-65
2022/05/29 01:46:34;;;;;;;10.10;7.70;;;;;;;8.04;95.14;97067.74;109363;1255;59750;-64
2022/05/29 01:49:28;;;;;;;12.60;8.40;;;;;;;8.12;94.61;97067.91;109382;1256;59695;-66
2022/05/29 01:52:05;;;;;;;13.30;9.60;;;;;;;8.16;96.44;97070.21;109329;1256;71394;-66
2022/05/29 01:54:41;;;;;;;16.70;12.00;;;;;;;8.16;96.63;97070.41;109377;1256;67588;-65
2022/05/29 01:57:27;;;;;;;13.40;9.40;;;;;;;8.19;97.30;97064.48;109329;1256;68543;-67
2022/05/29 02:00:13;;;;;;;15.80;10.10;;;;;;;8.22;97.17;97065.15;109469;1256;59828;-66
2022/05/29 02:03:09;;;;;;;16.60;11.00;;;;;;;8.25;97.26;97064.58;109518;1255;59789;-66
2022/05/29 02:05:50;;;;;;;15.30;11.00;;;;;;;8.29;97.14;97060.17;109484;1256;70979;-67
2022/05/29 02:08:33;;;;;;;15.50;10.10;;;;;;;8.34;97.58;97061.16;109507;1256;66759;-66
2022/05/29 02:11:07;;;;;;;20.10;12.00;;;;;;;8.40;97.50;97059.77;109356;1256;68803;-66
2022/05/29 02:14:05;;;;;;;17.20;11.60;;;;;;;8.44;97.45;97060.68;109355;1256;59768;-67
2022/05/29 02:16:42;;;;;;;20.10;12.70;;;;;;;8.45;96.52;97063.04;109693;1250;59680;-71
2022/05/29 02:19:19;;;;;;;22.50;15.00;;;;;;;8.44;95.81;97065.58;110025;1249;71536;-66
2022/05/29 02:22:09;;;;;;;17.40;11.50;;;;;;;8.40;96.40;97071.36;109837;1250;68621;-69
2022/05/29 02:24:50;;;;;;;19.50;12.60;;;;;;;8.37;96.89;97077.69;109957;1249;69470;-65
2022/05/29 02:27:36;;;;;;;20.10;13.00;;;;;;;8.35;97.11;97077.59;109918;1250;59770;-67
2022/05/29 02:30:10;;;;;;;25.00;14.30;;;;;;;8.34;97.26;97082.88;110011;1250;59691;-68
2022/05/29 02:33:15;;;;;;;20.20;12.30;;;;;;;8.33;97.52;97079.48;109843;1251;70942;-67
2022/05/29 02:36:23;;;;;;;19.40;12.10;;;;;;;8.33;97.73;97082.40;109820;1250;68198;-67
2022/05/29 02:39:18;;;;;;;17.50;11.80;;;;;;;8.34;98.26;97079.20;109641;1248;68517;-66
2022/05/29 02:42:05;;;;;;;24.20;12.10;;;;;;;8.36;98.09;97074.94;109830;1250;60133;-65
2022/05/29 02:45:38;;;;;;;31.20;15.10;;;;;;;8.38;98.48;97070.83;109707;1250;59673;-65
2022/05/29 02:48:43;;;;;;;21.40;13.00;;;;;;;8.43;99.20;97069.80;109200;1258;71385;-65
2022/05/29 02:51:19;;;;;;;20.50;11.20;;;;;;;8.49;99.63;97060.55;109255;1259;68596;-66
2022/05/29 02:53:50;;;;;;;20.30;13.60;;;;;;;8.52;98.73;97059.94;109725;1251;68940;-67
2022/05/29 02:56:21;;;;;;;22.90;12.20;;;;;;;8.56;98.54;97053.96;109862;1250;59702;-68
2022/05/29 02:58:54;;;;;;;22.20;11.80;;;;;;;8.57;97.47;97060.83;109873;1250;59662;-65
2022/05/29 03:01:49;;;;;;;20.50;12.20;;;;;;;8.55;97.58;97068.76;109876;1250;71394;-66
2022/05/29 03:04:52;;;;;;;31.10;13.40;;;;;;;8.55;96.87;97071.76;109858;1250;68514;-68
2022/05/29 03:07:48;;;;;;;35.80;13.50;;;;;;;8.54;96.26;97078.20;109759;1250;68515;-65
2022/05/29 03:10:23;;;;;;;18.00;11.40;;;;;;;8.53;96.60;97078.33;109720;1251;59783;-65
2022/05/29 03:12:58;;;;;;;19.70;13.40;;;;;;;8.55;97.34;97078.53;109929;1250;59724;-67
2022/05/29 03:16:27;;;;;;;20.40;11.50;;;;;;;8.57;97.92;97082.02;110064;1249;70739;-66
2022/05/29 03:19:19;;;;;;;15.80;10.90;;;;;;;8.58;97.78;97087.85;109159;1258;68818;-67
2022/05/29 03:21:59;;;;;;;21.00;11.70;;;;;;;8.60;97.74;97088.75;109153;1258;69270;-65
2022/05/29 03:24:32;;;;;;;14.20;9.70;;;;;;;8.63;97.73;97084.38;109590;1252;59771;-66
2022/05/29 03:27:12;;;;;;;18.20;13.50;;;;;;;8.67;97.80;97080.58;109764;1251;59770;-66
2022/05/29 03:30:09;;;;;;;14.20;8.80;;;;;;;8.73;98.20;97072.06;109884;1250;70728;-66
2022/05/29 03:32:39;;;;;;;21.20;13.40;;;;;;;8.78;97.54;97073.77;109765;1250;68371;-65
2022/05/29 03:35:57;;;;;;;17.10;11.30;;;;;;;8.82;97.87;97077.13;109980;1250;68693;-68
2022/05/29 03:38:27;;;;;;;17.80;12.10;;;;;;;8.91;98.27;97085.51;109925;1250;59722;-66
2022/05/29 03:40:58;;;;;;;23.50;14.00;;;;;;;8.97;98.36;97092.22;110046;1249;59690;-69
2022/05/29 03:43:28;;;;;;;16.80;12.50;;;;;;;8.99;98.03;97092.40;110061;1248;70784;-66
2022/05/29 03:45:57;;;;;;;15.30;9.60;;;;;;;9.04;98.17;97098.35;110048;1249;68651;-65
2022/05/29 03:48:30;;;;;;;12.80;10.00;;;;;;;9.11;97.82;97096.77;110014;1249;68929;-66
2022/05/29 03:51:08;;;;;;;12.60;10.10;;;;;;;9.22;97.89;97095.33;110048;1249;59754;-66
2022/05/29 03:53:38;;;;;;;13.50;10.60;;;;;;;9.27;97.48;97094.90;110063;1248;59749;-65
2022/05/29 03:56:09;;;;;;;13.30;8.80;;;;;;;9.34;96.97;97096.15;109997;1248;70788;-68
2022/05/29 03:58:38;;;;;;;12.20;8.80;;;;;;;9.41;96.79;97097.05;110018;1248;67623;-66
2022/05/29 04:01:08;;;;;;;13.90;10.30;;;;;;;9.49;96.81;97089.69;109818;1250;69474;-67
2022/05/29 04:03:38;;;;;;;15.40;11.30;;;;;;;9.57;96.82;97086.33;110140;1248;59665;-68
2022/05/29 04:06:08;;;;;;;14.20;9.50;;;;;;;9.64;96.11;97080.04;109964;1250;59764;-69
2022/05/29 04:14:14;;;;;;;29.30;18.20;;;;;;;9.87;94.95;97076.39;110115;1249;68689;-65
2022/05/29 04:16:44;;;;;;;27.20;15.60;;;;;;;9.96;94.65;97077.45;109691;1250;59694;-66
2022/05/29 04:19:15;;;;;;;27.40;17.40;;;;;;;10.06;95.02;97080.19;110098;1250;59753;-66
2022/05/29 04:21:45;;;;;;;45.60;21.10;;;;;;;10.13;94.70;97075.29;110195;1250;71862;-65
2022/05/29 04:24:16;;;;;;;30.90;17.90;;;;;;;10.26;94.33;97077.46;110028;1250;68636;-67
2022/05/29 04:26:47;;;;;;;46.70;23.70;;;;;;;10.38;93.48;97076.71;109827;1250;68469;-65
2022/05/29 04:29:18;;;;;;;41.70;21.10;;;;;;;10.49;93.37;97079.73;109985;1249;59685;-65
2022/05/29 04:34:37;;;;;;;30.40;16.80;;;;;;;10.70;91.76;97080.17;109814;1250;70897;-67
2022/05/29 04:37:06;;;;;;;27.00;16.50;;;;;;;10.76;91.55;97080.60;109955;1250;67867;-65
2022/05/29 04:39:36;;;;;;;26.50;14.40;;;;;;;10.81;92.32;97076.88;109884;1250;69454;-65
2022/05/29 04:42:06;;;;;;;13.50;9.90;;;;;;;10.89;93.53;97077.42;109885;1250;59689;-65
2022/05/29 04:44:35;;;;;;;12.10;10.30;;;;;;;11.00;93.24;97076.88;109810;1250;59767;-65
2022/05/29 04:47:05;;;;;;;11.40;10.00;;;;;;;11.14;92.68;97072.50;109822;1250;71561;-66
2022/05/29 04:49:35;;;;;;;;;;;;;;;11.28;92.32;97073.77;109898;1250;67918;-66
2022/05/29 04:52:09;;;;;;;9.80;8.00;;;;;;;11.39;91.57;97078.27;109774;1250;69573;-67
2022/05/29 04:54:40;;;;;;;9.90;8.80;;;;;;;11.50;90.91;97081.10;109927;1251;59708;-67
2022/05/29 04:57:10;;;;;;;18.10;12.10;;;;;;;11.61;90.61;97079.43;109972;1248;59752;-71
2022/05/29 04:59:39;;;;;;;21.70;14.60;;;;;;;11.71;89.82;97081.27;109904;1250;71614;-66
2022/05/29 05:02:08;;;;;;;16.40;12.10;;;;;;;11.72;88.93;97088.30;109830;1250;67545;-66
2022/05/29 05:04:38;;;;;;;18.60;12.50;;;;;;;11.69;88.45;97093.79;109873;1250;69470;-66
2022/05/29 05:07:08;;;;;;;20.90;12.00;;;;;;;11.75;88.51;97089.98;109853;1250;60224;-67
2022/05/29 05:09:38;;;;;;;17.60;12.70;;;;;;;11.82;88.54;97087.54;109876;1250;59755;-65
2022/05/29 05:12:08;;;;;;;14.70;10.20;;;;;;;11.84;88.33;97081.44;109740;1251;71614;-66
2022/05/29 05:14:37;;;;;;;14.50;11.00;;;;;;;11.86;87.97;97081.77;109924;1250;68597;-68
2022/05/29 05:17:08;;;;;;;13.80;10.00;;;;;;;11.92;87.77;97079.91;109867;1249;68659;-66
2022/05/29 05:19:37;;;;;;;11.30;9.50;;;;;;;12.00;87.58;97073.29;109913;1250;59766;-67
2022/05/29 05:22:08;;;;;;;13.40;10.90;;;;;;;12.11;88.10;97067.81;109733;1250;59708;-70
2022/05/29 05:24:38;;;;;;;14.80;12.20;;;;;;;12.24;88.48;97063.77;109942;1250;71550;-71
2022/05/29 05:27:08;;;;;;;12.20;9.30;;;;;;;12.37;88.54;97051.96;109916;1250;68646;-68
2022/05/29 05:29:44;;;;;;;11.00;8.90;;;;;;;12.58;87.75;97052.42;109929;1249;69339;-65
2022/05/29 05:32:13;;;;;;;11.70;8.00;;;;;;;12.77;86.66;97055.52;109886;1250;59749;-66
2022/05/29 05:34:42;;;;;;;10.60;8.60;;;;;;;12.99;86.74;97055.04;109947;1250;59740;-70
2022/05/29 05:37:12;;;;;;;11.70;9.70;;;;;;;13.13;84.80;97050.08;109793;1249;70702;-66
2022/05/29 05:39:41;;;;;;;10.40;9.20;;;;;;;13.23;84.18;97048.15;110012;1249;67859;-68
2022/05/29 05:42:11;;;;;;;8.70;7.80;;;;;;;13.31;84.37;97053.23;109819;1250;68597;-66
2022/05/29 05:44:40;;;;;;;8.90;8.00;;;;;;;13.43;84.34;97052.18;110023;1249;59698;-65
2022/05/29 05:47:09;;;;;;;7.30;6.50;;;;;;;13.49;83.53;97050.95;110050;1250;59682;-67
2022/05/29 05:49:39;;;;;;;10.90;7.90;;;;;;;13.49;82.75;97048.44;110054;1250;71564;-66
2022/05/29 05:52:08;;;;;;;8.80;7.70;;;;;;;13.50;82.71;97038.56;109834;1250;68612;-66
2022/05/29 05:54:37;;;;;;;10.80;9.10;;;;;;;13.53;82.44;97032.14;109807;1250;69264;-68
2022/05/29 05:57:07;;;;;;;11.20;8.60;;;;;;;13.62;82.48;97032.23;109950;1249;60186;-69
2022/05/29 05:59:39;;;;;;;8.80;7.60;;;;;;;13.68;82.07;97036.89;110135;1250;59658;-66
2022/05/29 06:02:09;;;;;;;11.30;9.30;;;;;;;13.71;82.08;97036.80;110068;1248;70356;-66
2022/05/29 06:04:41;;;;;;;11.20;9.20;;;;;;;13.75;82.17;97040.09;110133;1250;68643;-69
2022/05/29 06:07:10;;;;;;;9.20;8.30;;;;;;;13.81;81.81;97045.89;110140;1250;68808;-66
2022/05/29 06:09:40;;;;;;;10.80;9.10;;;;;;;13.86;81.59;97042.98;110003;1249;59734;-66
2022/05/29 06:12:09;;;;;;;11.60;9.20;;;;;;;13.96;81.66;97041.86;110057;1249;59675;-66
2022/05/29 06:14:38;;;;;;;11.50;9.00;;;;;;;14.02;80.27;97042.36;110090;1249;70844;-65
2022/05/29 06:17:08;;;;;;;10.20;9.10;;;;;;;14.01;80.03;97048.95;110065;1250;68579;-68
2022/05/29 06:19:37;;;;;;;8.80;7.90;;;;;;;13.98;80.01;97047.16;110033;1248;69559;-66
2022/05/29 06:22:07;;;;;;;10.10;9.00;;;;;;;13.98;79.74;97040.43;110004;1249;59695;-69
2022/05/29 06:24:36;;;;;;;;;;;;;;;13.97;79.43;97039.84;109746;1250;60109;-65
2022/05/29 06:27:05;;;;;;;10.10;7.10;;;;;;;14.01;79.99;97039.48;109627;1249;618262;-66
2022/05/29 06:29:34;;;;;;;9.00;7.40;;;;;;;14.06;79.53;97032.08;109870;1249;67916;-65
2022/05/29 06:32:08;;;;;;;10.30;8.80;;;;;;;14.10;79.60;97036.23;109879;1250;68676;-68
2022/05/29 06:34:38;;;;;;;11.90;9.90;;;;;;;14.15;79.25;97037.46;110020;1250;59699;-66
2022/05/29 06:37:07;;;;;;;13.00;11.00;;;;;;;14.14;77.84;97038.27;109989;1250;59633;-66
2022/05/29 06:39:38;;;;;;;12.10;10.10;;;;;;;14.19;77.80;97032.88;109867;1250;70716;-66
2022/05/29 06:42:07;;;;;;;14.40;11.60;;;;;;;14.35;78.24;97030.37;109879;1250;67863;-66
2022/05/29 06:44:41;;;;;;;15.00;13.40;;;;;;;14.49;77.50;97027.17;109767;1250;69505;-68
2022/05/29 06:47:10;;;;;;;15.10;12.20;;;;;;;14.62;77.34;97026.47;109984;1250;59753;-66
2022/05/29 06:49:38;;;;;;;13.30;11.70;;;;;;;14.75;76.33;97021.30;109667;1250;59706;-65
2022/05/29 06:52:10;;;;;;;15.70;12.80;;;;;;;14.88;76.74;97018.36;109846;1250;70991;-67
2022/05/29 06:54:39;;;;;;;12.40;9.40;;;;;;;14.97;75.40;97012.23;109943;1250;68587;-67
2022/05/29 06:57:10;;;;;;;9.70;8.70;;;;;;;15.04;73.31;97015.23;109941;1250;68710;-65
2022/05/29 07:08:06;;;;;;;9.30;8.00;;;;;;;15.40;71.91;97005.51;109975;1250;68703;-66
2022/05/29 07:10:34;;;;;;;9.30;7.10;;;;;;;15.57;72.42;97003.17;109823;1250;69517;-67
2022/05/29 07:13:03;;;;;;;10.20;7.80;;;;;;;15.75;70.97;97001.52;109866;1250;59740;-67
2022/05/29 07:15:32;;;;;;;10.40;6.90;;;;;;;15.89;70.43;96995.38;109865;1250;59637;-67
2022/05/29 07:18:01;;;;;;;8.00;6.60;;;;;;;16.12;69.89;96989.71;109943;1249;71519;-71
2022/05/29 07:20:30;;;;;;;7.50;6.00;;;;;;;16.37;69.87;96988.86;110011;1249;67611;-68
2022/05/29 07:22:59;;;;;;;6.00;5.20;;;;;;;16.70;68.98;96992.14;109817;1250;69450;-67
2022/05/29 07:25:28;;;;;;;7.80;6.30;;;;;;;16.78;66.27;96999.32;110009;1250;59755;-69
2022/05/29 07:27:57;;;;;;;5.80;5.20;;;;;;;16.82;65.46;97000.64;109860;1250;59691;-68
2022/05/29 07:30:26;;;;;;;7.60;5.90;;;;;;;16.94;65.27;96999.69;109894;1250;71529;-68
2022/05/29 07:32:59;;;;;;;5.10;3.80;;;;;;;17.05;65.98;97006.94;109804;1251;68401;-71
2022/05/29 07:35:29;;;;;;;6.50;4.90;;;;;;;17.09;63.90;97011.87;109947;1250;69773;-72
2022/05/29 07:37:58;;;;;;;6.00;4.10;;;;;;;17.08;62.40;97009.54;109745;1253;59784;-66
2022/05/29 07:40:27;;;;;;;4.90;4.00;;;;;;;17.17;63.56;97003.39;110007;1248;60079;-68
2022/05/29 07:45:44;;;;;;;3.30;2.70;;;;;;;17.28;60.87;97003.64;109904;1250;68405;-68
2022/05/29 07:48:17;;;;;;;6.20;3.40;;;;;;;17.42;61.87;97001.80;109745;1251;69428;-66
2022/05/29 07:50:46;;;;;;;3.30;2.90;;;;;;;17.47;60.60;96998.02;110033;1250;59753;-68
2022/05/29 07:53:16;;;;;;;4.50;3.10;;;;;;;17.47;61.42;96994.48;109959;1250;59729;-67
2022/05/29 07:55:45;;;;;;;4.50;3.40;;;;;;;17.54;61.35;96993.84;109976;1250;71586;-66
2022/05/29 07:58:15;;;;;;;4.20;3.30;;;;;;;17.47;59.70;96992.99;109866;1250;67858;-70
2022/05/29 08:00:44;;;;;;;5.30;3.70;;;;;;;17.43;60.09;96989.75;109897;1250;69307;-67
2022/05/29 08:03:13;;;;;;;3.40;2.60;;;;;;;17.43;60.67;96988.14;110053;1250;59665;-68
2022/05/29 08:05:42;;;;;;;4.90;3.40;;;;;;;17.48;60.24;96988.37;109822;1250;59616;-71
2022/05/29 08:08:13;;;;;;;5.40;3.70;;;;;;;17.47;59.58;96987.87;109907;1250;71521;-65
2022/05/29 08:10:43;;;;;;;5.20;3.40;;;;;;;17.41;60.01;96990.91;109862;1250;68001;-66
2022/05/29 08:13:12;;;;;;;4.40;3.40;;;;;;;17.24;59.19;96988.05;109999;1250;67914;-67
2022/05/29 08:15:41;;;;;;;3.60;2.70;;;;;;;17.23;60.00;96987.13;109977;1250;59749;-67
2022/05/29 08:18:11;;;;;;;4.40;2.50;;;;;;;17.40;60.73;96988.46;109972;1250;59634;-66
2022/05/29 08:20:40;;;;;;;5.20;3.70;;;;;;;17.29;61.33;96990.52;109964;1250;71590;-68
2022/05/29 08:23:15;;;;;;;5.30;3.70;;;;;;;17.28;61.74;96993.93;109833;1250;68556;-67
2022/05/29 08:31:25;;;;;;;4.30;2.90;;;;;;;17.01;60.84;97001.12;109795;1250;59760;-66
2022/05/29 08:33:54;;;;;;;4.80;3.70;;;;;;;17.20;61.45;96999.80;109726;1253;70892;-66
2022/05/29 08:36:26;;;;;;;5.60;3.40;;;;;;;17.19;61.18;97010.98;109775;1250;68094;-66
2022/05/29 08:38:56;;;;;;;5.00;3.20;;;;;;;17.15;60.70;97008.23;109750;1250;69436;-69
2022/05/29 08:41:46;;;;;;;4.20;3.40;;;;;;;17.01;60.89;97006.86;109784;1250;59755;-65
2022/05/29 08:44:20;;;;;;;4.90;2.90;;;;;;;17.30;61.05;97001.00;109880;1250;59628;-65
2022/05/29 08:46:53;;;;;;;3.50;3.10;;;;;;;17.67;60.84;96995.27;109816;1250;71749;-66
2022/05/29 08:49:29;;;;;;;5.00;2.90;;;;;;;18.12;59.36;96998.42;109989;1250;68745;-66
2022/05/29 08:52:19;;;;;;;3.60;2.60;;;;;;;18.69;58.39;96996.55;109710;1253;69437;-68
2022/05/29 08:55:08;;;;;;;3.30;2.70;;;;;;;19.31;57.52;96999.59;109867;1250;59727;-67
2022/05/29 08:58:01;;;;;;;3.30;2.30;;;;;;;19.90;56.32;96999.58;109904;1250;59693;-67
2022/05/29 09:00:46;;;;;;;3.70;2.30;;;;;;;20.47;52.71;96994.70;109902;1250;70796;-68
2022/05/29 09:03:18;;;;;;;3.20;2.40;;;;;;;20.91;50.00;96995.03;109926;1250;68654;-69
2022/05/29 09:05:52;;;;;;;3.70;2.40;;;;;;;20.99;48.54;97002.23;109784;1250;69133;-65
2022/05/29 09:08:25;;;;;;;3.40;2.20;;;;;;;20.64;48.92;97006.64;109996;1250;59672;-67
2022/05/29 09:11:00;;;;;;;3.30;2.10;;;;;;;20.21;50.44;97008.30;109961;1250;59753;-66
2022/05/29 09:13:37;;;;;;;2.20;1.90;;;;;;;19.97;49.97;97013.96;109719;1251;70750;-67
2022/05/29 09:16:14;;;;;;;3.10;2.00;;;;;;;19.84;48.46;97020.86;109859;1250;68763;-66
2022/05/29 09:19:05;;;;;;;3.50;2.00;;;;;;;19.80;48.35;97021.30;109971;1251;68896;-66
2022/05/29 09:21:56;;;;;;;2.60;1.90;;;;;;;19.60;49.01;97018.89;109794;1250;59716;-65
2022/05/29 09:24:41;;;;;;;4.00;2.40;;;;;;;19.30;50.33;97011.70;109748;1250;59703;-68
2022/05/29 09:27:11;;;;;;;2.30;1.90;;;;;;;19.05;51.07;97002.17;109783;1250;70993;-67
2022/05/29 09:29:40;;;;;;;3.10;2.00;;;;;;;19.01;52.49;96999.96;109647;1252;68596;-65
2022/05/29 09:32:15;;;;;;;6.90;4.80;;;;;;;19.18;52.42;97002.48;109848;1250;68984;-71
2022/05/29 09:35:00;;;;;;;4.10;2.70;;;;;;;19.17;51.99;97002.73;110022;1250;59660;-69
2022/05/29 09:38:21;;;;;;;2.50;2.20;;;;;;;19.12;51.84;96999.78;109866;1250;59748;-67
2022/05/29 09:40:58;;;;;;;3.90;2.30;;;;;;;19.05;51.04;97001.98;109851;1250;71596;-66
2022/05/29 09:43:28;;;;;;;2.50;2.00;;;;;;;18.77;51.07;96995.34;109926;1250;68814;-66
2022/05/29 09:46:20;;;;;;;4.40;2.20;;;;;;;18.49;51.04;96998.41;109881;1250;69358;-69
2022/05/29 09:52:11;;;;;;;3.90;2.20;;;;;;;18.16;51.73;96991.04;109773;1250;59765;-68
2022/05/29 09:55:02;;;;;;;4.00;2.30;;;;;;;17.99;53.91;96990.54;109958;1250;71691;-66
2022/05/29 09:57:55;;;;;;;3.00;2.20;;;;;;;17.85;55.08;96995.08;109955;1250;68785;-66
2022/05/29 10:00:32;;;;;;;2.60;2.00;;;;;;;17.60;55.55;96997.06;109886;1250;70129;-65
2022/05/29 10:03:07;;;;;;;3.10;2.50;;;;;;;17.55;56.67;96998.80;109850;1250;59755;-66
2022/05/29 10:05:42;;;;;;;3.90;2.90;;;;;;;17.40;56.90;97002.40;109785;1250;59690;-66
2022/05/29 10:08:31;;;;;;;2.90;2.40;;;;;;;17.25;58.25;97005.05;109764;1250;71544;-67
2022/05/29 10:11:14;;;;;;;5.00;2.80;;;;;;;17.11;57.82;97002.86;110113;1250;67881;-68
2022/05/29 10:13:44;;;;;;;3.30;2.20;;;;;;;17.00;58.61;97001.25;109926;1250;68737;-68
2022/05/29 10:16:32;;;;;;;2.70;2.20;;;;;;;16.97;60.33;97001.73;109993;1250;59741;-67
2022/05/29 10:19:04;;;;;;;3.20;2.20;;;;;;;16.93;62.16;97015.26;109869;1250;59724;-69
2022/05/29 10:21:47;;;;;;;3.20;2.40;;;;;;;16.68;63.33;97026.46;110066;1250;72198;-66
2022/05/29 10:24:21;;;;;;;3.10;2.30;;;;;;;16.42;63.99;97036.62;110095;1250;67806;-71
2022/05/29 10:26:59;;;;;;;3.30;2.70;;;;;;;16.18;64.40;97047.11;110107;1250;68817;-66
2022/05/29 10:29:31;;;;;;;4.10;2.80;;;;;;;16.12;63.47;97056.02;109800;1251;59748;-67
2022/05/29 10:32:09;;;;;;;5.80;2.60;;;;;;;16.01;63.66;97058.59;110107;1250;59687;-66
2022/05/29 10:34:41;;;;;;;4.40;3.00;;;;;;;16.00;64.66;97042.96;109988;1250;71737;-66
2022/05/29 10:37:35;;;;;;;4.40;3.20;;;;;;;16.03;65.51;97025.26;109938;1250;66825;-66
2022/05/29 10:40:19;;;;;;;3.70;2.80;;;;;;;16.06;64.40;97014.44;109841;1249;69473;-66
2022/05/29 10:42:52;;;;;;;5.20;3.10;;;;;;;16.08;64.65;97012.60;109770;1252;59720;-66
2022/05/29 10:45:27;;;;;;;4.10;3.60;;;;;;;16.10;64.31;97010.97;109964;1250;59700;-67
2022/05/29 10:48:27;;;;;;;3.90;3.50;;;;;;;16.10;64.63;97010.70;109739;1250;71593;-66
2022/05/29 10:51:19;;;;;;;6.00;4.00;;;;;;;16.03;65.50;97007.33;109740;1253;68620;-67
2022/05/29 10:54:06;;;;;;;3.60;3.20;;;;;;;15.97;66.02;97003.66;109812;1250;68663;-66
2022/05/29 10:56:55;;;;;;;5.40;3.20;;;;;;;15.89;67.49;96996.85;109879;1250;59688;-67
2022/05/29 10:59:48;;;;;;;5.90;4.50;;;;;;;15.83;73.58;96986.37;109748;1251;59761;-69
2022/05/29 11:05:41;;;;;;;6.70;4.50;;;;;;;15.66;74.57;96958.71;109838;1249;68712;-67
2022/05/29 11:08:28;;;;;;;7.70;5.20;;;;;;;15.55;75.89;96955.95;109938;1250;69448;-71
2022/05/29 11:11:15;;;;;;;6.40;5.00;;;;;;;15.55;73.65;96954.00;109775;1250;59765;-67
2022/05/29 11:14:11;;;;;;;7.70;5.10;;;;;;;15.57;72.59;96956.41;109798;1250;59756;-72
2022/05/29 11:16:57;;;;;;;5.90;4.60;;;;;;;15.55;72.61;96956.27;109853;1251;72281;-68
2022/05/29 11:19:35;;;;;;;5.30;4.60;;;;;;;15.55;72.63;96954.17;109936;1251;67967;-70
2022/05/29 11:22:58;;;;;;;5.70;4.50;;;;;;;15.55;75.33;96946.20;109877;1250;68621;-69
2022/05/29 11:25:40;;;;;;;6.70;4.80;;;;;;;15.67;77.47;96935.77;109274;1257;60087;-67
2022/05/29 11:28:27;;;;;;;5.50;3.60;;;;;;;15.82;76.79;96939.52;109738;1251;59688;-67
2022/05/29 11:31:19;;;;;;;4.00;3.40;;;;;;;16.10;75.71;96943.47;110008;1250;71620;-66
2022/05/29 11:34:17;;;;;;;9.20;6.70;;;;;;;16.36;74.64;96941.66;109884;1250;68564;-67
2022/05/29 11:37:18;;;;;;;6.10;3.70;;;;;;;16.56;74.24;96950.55;109923;1250;69489;-66
2022/05/29 11:39:47;;;;;;;6.30;4.40;;;;;;;16.67;74.38;96949.05;109409;1256;59730;-66
2022/05/29 11:42:56;;;;;;;4.80;3.90;;;;;;;16.80;73.74;96951.77;109404;1256;59639;-65
2022/05/29 11:51:27;;;;;;;3.90;3.10;;;;;;;16.76;73.08;96959.02;109608;1254;69711;-66
2022/05/29 11:54:17;;;;;;;6.00;4.00;;;;;;;16.65;73.33;96958.26;109552;1254;60133;-67
2022/05/29 11:56:49;;;;;;;;;;;;;;;16.55;73.79;96956.58;109626;1253;59699;-67
2022/05/29 11:59:20;;;;;;;6.80;5.90;;;;;;;16.46;74.19;96955.27;109652;1254;72236;-66
2022/05/29 12:02:00;;;;;;;7.10;5.40;;;;;;;16.34;74.59;96963.75;109687;1252;67794;-68
2022/05/29 12:04:35;;;;;;;6.80;5.60;;;;;;;16.23;74.40;96965.19;109650;1254;69538;-67
2022/05/29 12:07:08;;;;;;;6.00;5.20;;;;;;;16.14;75.34;96957.55;109617;1254;59749;-66
2022/05/29 12:09:43;;;;;;;7.20;6.30;;;;;;;16.04;75.67;96962.77;109646;1254;59708;-69
2022/05/29 12:12:23;;;;;;;8.50;7.60;;;;;;;15.91;76.22;96961.41;109662;1253;71654;-66
2022/05/29 12:14:58;;;;;;;7.40;5.60;;;;;;;15.74;77.68;96968.55;109575;1256;67993;-68
2022/05/29 12:17:49;;;;;;;6.10;5.20;;;;;;;15.72;77.14;96976.88;109867;1251;69795;-67
2022/05/29 12:20:28;;;;;;;6.50;5.30;;;;;;;15.69;77.66;96974.16;110032;1250;59636;-68
2022/05/29 12:23:10;;;;;;;6.90;5.90;;;;;;;15.66;79.35;96964.02;109997;1250;59620;-68
2022/05/29 12:25:47;;;;;;;7.50;5.40;;;;;;;15.60;79.09;96953.70;110012;1250;70869;-69
2022/05/29 12:28:43;;;;;;;7.80;7.00;;;;;;;15.51;80.20;96946.83;109643;1250;68045;-66
2022/05/29 12:31:42;;;;;;;7.30;5.80;;;;;;;15.39;79.92;96948.77;109976;1250;69763;-70
2022/05/29 12:34:26;;;;;;;7.60;6.50;;;;;;;15.29;80.57;96943.59;110100;1250;59751;-68
2022/05/29 12:37:13;;;;;;;7.50;6.10;;;;;;;15.21;81.83;96936.12;110152;1250;59698;-66
2022/05/29 12:39:57;;;;;;;7.90;7.10;;;;;;;15.17;82.34;96931.02;110053;1248;69871;-70
2022/05/29 12:42:54;;;;;;;7.50;6.30;;;;;;;15.11;82.63;96911.48;110059;1250;68714;-69
2022/05/29 12:45:47;;;;;;;6.30;5.60;;;;;;;15.10;82.32;96896.67;110050;1250;69801;-70
2022/05/29 12:48:49;;;;;;;5.10;4.60;;;;;;;15.19;83.50;96907.38;110029;1250;59680;-65